This is the latest recevied weather packets stored in our database for station/object KC8YYF. If no packets are shown the sender has not sent any weather packets the latest 10 day(s).
| Time | Temp. | Humidity | Pressure | Rain* | Wind** | Luminosity | Snow |
|---|---|---|---|---|---|---|---|
| 1777993026 | 20° C | 67% | 1009.4 hPa | 0 mm | - | 462 W/m² | - |
| 1777992725 | 20° C | 64% | 1009.2 hPa | 0 mm | - | 433 W/m² | - |
| 1777992422 | 20° C | 67% | 1009.4 hPa | 0 mm | - | 385 W/m² | - |
| 1777992120 | 19.44° C | 67% | 1009.3 hPa | 0 mm | - | 343 W/m² | - |
| 1777991817 | 19.44° C | 67% | 1009.3 hPa | 0 mm | - | 395 W/m² | - |
| 1777991515 | 18.89° C | 70% | 1009.4 hPa | 0 mm | - | 380 W/m² | - |
| 1777991211 | 18.89° C | 71% | 1009.3 hPa | 0 mm | - | 387 W/m² | - |
| 1777990909 | 19.44° C | 68% | 1009.3 hPa | 0 mm | - | 296 W/m² | - |
| 1777990607 | 18.89° C | 71% | 1009.3 hPa | 0 mm | - | 421 W/m² | - |
| 1777989999 | 18.33° C | 74% | 1009.3 hPa | 0 mm | - | 209 W/m² | - |
| 1777989696 | 17.22° C | 79% | 1009.5 hPa | 0 mm | - | 169 W/m² | - |
| 1777989392 | 16.67° C | 80% | 1009.1 hPa | 0 mm | - | 111 W/m² | - |
| 1777989089 | 16.11° C | 83% | 1009.3 hPa | 0 mm | - | 86 W/m² | - |
| 1777988785 | 15.56° C | 83% | 1009.2 hPa | 0 mm | - | 72 W/m² | - |
| 1777988483 | 15.56° C | 85% | 1009.1 hPa | 0 mm | - | 79 W/m² | - |
| 1777988180 | 15° C | 87% | 1009 hPa | 0 mm | - | 73 W/m² | - |
| 1777987875 | 15° C | 87% | 1009.3 hPa | 0 mm | - | 48 W/m² | - |
| 1777987572 | 15° C | 88% | 1009.1 hPa | 0.51 mm | - | 24 W/m² | - |
| 1777987269 | 14.44° C | 89% | 1009.1 hPa | 0.51 mm | - | 29 W/m² | - |
| 1777986966 | 14.44° C | 89% | 1009 hPa | 0 mm | - | 22 W/m² | - |
| 1777986664 | 14.44° C | 87% | 1008.9 hPa | 0 mm | - | 15 W/m² | - |
| 1777986362 | 15° C | 85% | 1008.9 hPa | 0 mm | - | 17 W/m² | - |
| 1777986060 | 15° C | 85% | 1008.9 hPa | 0 mm | - | 11 W/m² | - |
| 1777985756 | 15.56° C | 82% | 1009 hPa | 0 mm | - | 16 W/m² | - |
| 1777985453 | 15.56° C | 79% | 1009 hPa | 0 mm | - | 11 W/m² | - |
* Rain latest hour (hover to see other rain measurements)
** Current wind speed in m/s (hover to see current wind gust speed)